Time;durP1;ratioP1;P1;durP2;ratioP2;P2;SDS_P1;SDS_P2;PMS_P1;PMS_P2;Temp;Humidity;BMP_temperature;BMP_pressure;BME280_temperature;BME280_humidity;BME280_pressure;Samples;Min_cycle;Max_cycle;Signal;HPM_P1;HPM_P2
2022/09/18 00:00:08;;;;;;;1.87;0.30;;;;;;;14.50;100.00;100459.94;2086981;28;20289;-63
2022/09/18 00:01:16;;;;;;;1.20;0.30;;;;;;;14.28;100.00;100429.41;2087054;28;20189;-63
2022/09/18 00:02:16;;;;;;;2.67;0.40;;;;;;;14.35;100.00;100445.81;2087769;28;20411;-63
2022/09/18 00:03:17;;;;;;;1.70;0.40;;;;;;;13.62;100.00;100356.94;2086875;28;20447;-63
2022/09/18 00:04:17;;;;;;;1.23;0.30;;;;;;;14.27;100.00;100452.94;2086795;28;20199;-63
2022/09/18 00:05:18;;;;;;;0.73;0.30;;;;;;;14.21;100.00;100449.22;2086461;28;20614;-63
2022/09/18 00:06:22;;;;;;;1.50;0.23;;;;;;;14.19;100.00;100471.19;2087145;28;20712;-62
2022/09/18 00:07:23;;;;;;;1.97;0.30;;;;;;;14.23;100.00;100462.66;2086216;28;20834;-63
2022/09/18 00:08:23;;;;;;;1.50;0.50;;;;;;;14.23;100.00;100452.31;2086071;28;20455;-63
2022/09/18 00:09:23;;;;;;;3.43;0.40;;;;;;;14.23;100.00;100462.66;2087383;28;20208;-63
2022/09/18 00:10:24;;;;;;;1.63;0.33;;;;;;;14.19;100.00;100468.38;2087730;28;20189;-63
2022/09/18 00:11:26;;;;;;;0.27;0.27;;;;;;;13.63;100.00;100387.09;2087064;28;20189;-63
2022/09/18 00:12:27;;;;;;;0.67;0.30;;;;;;;14.11;100.00;100467.13;2087408;28;20249;-63
2022/09/18 00:13:27;;;;;;;0.87;0.30;;;;;;;14.06;100.00;100481.66;2087073;28;20442;-63
2022/09/18 00:14:28;;;;;;;0.50;0.30;;;;;;;14.04;100.00;100478.53;2087379;28;20193;-63
2022/09/18 00:15:28;;;;;;;0.70;0.40;;;;;;;14.01;100.00;100498.97;2086807;28;20196;-63
2022/09/18 00:16:29;;;;;;;0.53;0.30;;;;;;;13.95;100.00;100492.44;2086240;28;20205;-63
2022/09/18 00:17:29;;;;;;;3.67;0.20;;;;;;;13.96;100.00;100496.00;2086409;28;20187;-63
2022/09/18 00:18:30;;;;;;;1.50;0.20;;;;;;;13.96;100.00;100499.56;2087979;28;20190;-63
2022/09/18 00:19:31;;;;;;;0.83;0.30;;;;;;;13.97;100.00;100505.91;2086836;28;20185;-63
2022/09/18 00:20:36;;;;;;;0.20;0.20;;;;;;;13.97;100.00;100509.47;2087201;28;20201;-62
2022/09/18 00:21:40;;;;;;;0.23;0.10;;;;;;;13.87;100.00;100521.00;2086750;28;20615;-63
2022/09/18 00:22:41;;;;;;;0.93;0.23;;;;;;;13.92;100.00;100512.06;2086815;28;20866;-63
2022/09/18 00:23:42;;;;;;;1.50;0.30;;;;;;;13.48;100.00;100449.34;2087621;28;20561;-63
2022/09/18 00:24:42;;;;;;;0.43;0.20;;;;;;;13.88;100.00;100508.66;2087339;28;20587;-63
2022/09/18 00:25:43;;;;;;;0.20;0.20;;;;;;;13.86;100.00;100511.13;2085816;28;20438;-63
2022/09/18 00:26:44;;;;;;;0.10;0.10;;;;;;;13.88;100.00;100515.00;2087197;28;20184;-63
2022/09/18 00:27:45;;;;;;;0.10;0.10;;;;;;;13.77;100.00;100477.63;2087345;28;20193;-63
2022/09/18 00:28:46;;;;;;;0.70;0.20;;;;;;;13.89;100.00;100502.59;2086531;28;20478;-63
2022/09/18 00:29:46;;;;;;;0.20;0.20;;;;;;;13.94;100.00;100492.91;2086868;28;20205;-63
2022/09/18 00:30:47;;;;;;;0.20;0.20;;;;;;;13.95;100.00;100511.94;2085615;28;20196;-63
2022/09/18 00:31:47;;;;;;;1.97;0.20;;;;;;;13.95;100.00;100517.53;2087135;28;20180;-63
2022/09/18 00:32:48;;;;;;;0.30;0.20;;;;;;;13.92;100.00;100506.50;2086980;28;20278;-63
2022/09/18 00:33:48;;;;;;;0.77;0.20;;;;;;;13.84;100.00;100506.00;2086836;28;20178;-63
2022/09/18 00:34:48;;;;;;;0.63;0.30;;;;;;;13.92;100.00;100521.22;2087115;28;20268;-63
2022/09/18 00:35:49;;;;;;;2.07;0.40;;;;;;;13.88;100.00;100497.53;2087904;28;20188;-63
2022/09/18 00:36:49;;;;;;;2.60;0.20;;;;;;;13.62;100.00;100469.06;2087499;28;20195;-62
2022/09/18 00:37:50;;;;;;;0.20;0.10;;;;;;;13.96;100.00;100521.84;2086843;28;20188;-63
2022/09/18 00:38:51;;;;;;;3.80;0.30;;;;;;;13.24;100.00;100428.81;2086994;28;20190;-63
2022/09/18 00:39:51;;;;;;;3.43;0.50;;;;;;;13.98;100.00;100541.66;2086772;28;20188;-63
2022/09/18 00:40:52;;;;;;;2.03;0.20;;;;;;;13.98;100.00;100533.31;2086231;28;20217;-63
2022/09/18 00:41:52;;;;;;;1.27;0.10;;;;;;;13.96;100.00;100538.56;2087418;28;20245;-63
2022/09/18 00:42:52;;;;;;;0.57;0.20;;;;;;;13.96;100.00;100538.56;2087116;28;20188;-63
2022/09/18 00:44:28;;;;;;;4.10;0.30;;;;;;;13.92;100.00;100539.91;2087870;28;20206;-63
2022/09/18 00:45:28;;;;;;;1.00;0.30;;;;;;;13.92;100.00;100553.84;2086418;28;20574;-63
2022/09/18 00:46:32;;;;;;;0.20;0.20;;;;;;;13.96;100.00;100549.72;2086986;28;20431;-63
2022/09/18 00:47:47;;;;;;;0.20;0.20;;;;;;;13.96;100.00;100560.84;2086475;28;20236;-63
2022/09/18 00:49:15;;;;;;;0.83;0.20;;;;;;;13.51;100.00;100515.25;2087077;28;20416;-63
2022/09/18 00:50:26;;;;;;;1.60;0.40;;;;;;;13.76;100.00;100565.22;2087066;28;20951;-63
2022/09/18 00:51:28;;;;;;;1.80;0.27;;;;;;;13.74;100.00;100564.91;2086944;28;21015;-62
2022/09/18 00:52:38;;;;;;;0.40;0.30;;;;;;;13.70;100.00;100597.66;2087291;28;20441;-62
2022/09/18 00:53:43;;;;;;;0.47;0.30;;;;;;;13.67;100.00;100581.84;2087492;28;20595;-63
2022/09/18 00:54:49;;;;;;;0.50;0.40;;;;;;;13.66;100.00;100575.53;2086727;28;21086;-63
2022/09/18 00:55:50;;;;;;;2.53;0.30;;;;;;;13.66;100.00;100583.88;2086682;28;20517;-63
2022/09/18 00:56:54;;;;;;;1.50;0.37;;;;;;;13.72;100.00;100582.06;2087278;28;20418;-63
2022/09/18 00:57:57;;;;;;;0.97;0.40;;;;;;;13.73;100.00;100575.25;2085981;28;20217;-63
2022/09/18 00:58:58;;;;;;;1.20;0.40;;;;;;;13.71;100.00;100588.88;2087611;28;20442;-63
2022/09/18 01:00:01;;;;;;;0.60;0.40;;;;;;;13.69;100.00;100577.38;2087394;28;20449;-63
2022/09/18 01:01:02;;;;;;;1.63;0.40;;;;;;;13.70;100.00;100584.53;2085591;28;20227;-63
2022/09/18 01:02:03;;;;;;;1.17;0.60;;;;;;;13.72;100.00;100584.84;2087069;28;20455;-63
2022/09/18 01:03:04;;;;;;;1.23;0.40;;;;;;;13.75;100.00;100575.59;2086970;28;20196;-63
2022/09/18 01:04:10;;;;;;;0.33;0.30;;;;;;;13.72;100.00;100572.91;2086589;28;20533;-63
2022/09/18 01:05:13;;;;;;;2.50;0.40;;;;;;;13.70;100.00;100544.75;2086667;28;20832;-63
2022/09/18 01:06:21;;;;;;;0.30;0.30;;;;;;;13.81;100.00;100550.69;2088219;28;20428;-63
2022/09/18 01:07:42;;;;;;;0.40;0.40;;;;;;;13.84;100.00;100550.56;2088521;28;20421;-63
2022/09/18 01:08:57;;;;;;;0.50;0.40;;;;;;;13.90;100.00;100548.75;2087455;28;20526;-63
2022/09/18 01:10:05;;;;;;;1.53;0.50;;;;;;;13.85;100.00;100545.78;2088458;28;20462;-63
2022/09/18 01:11:18;;;;;;;1.33;0.30;;;;;;;13.78;100.00;100551.63;2088080;28;20450;-63
2022/09/18 01:12:28;;;;;;;0.70;0.30;;;;;;;13.76;100.00;100551.28;2088428;28;20443;-63
2022/09/18 01:13:46;;;;;;;1.33;0.30;;;;;;;13.78;100.00;100565.56;2088038;28;20912;-63
2022/09/18 01:15:02;;;;;;;1.00;0.30;;;;;;;13.71;100.00;100563.00;2087789;28;20525;-63
2022/09/18 01:16:31;;;;;;;1.13;0.43;;;;;;;13.70;100.00;100555.91;2088957;28;20504;-63
2022/09/18 01:17:47;;;;;;;1.63;0.60;;;;;;;13.71;100.00;100572.16;2084048;28;20463;-62
2022/09/18 01:18:55;;;;;;;1.13;0.50;;;;;;;13.65;100.00;100579.56;2088574;28;20841;-62
2022/09/18 01:20:05;;;;;;;1.27;0.40;;;;;;;13.63;100.00;100587.56;2087997;28;20501;-63
2022/09/18 01:21:44;;;;;;;1.43;0.40;;;;;;;13.65;100.00;100589.91;2087724;28;20428;-63
2022/09/18 01:23:09;;;;;;;1.80;0.60;;;;;;;13.63;100.00;100597.94;2079178;28;20448;-63
2022/09/18 01:24:40;;;;;;;3.13;0.60;;;;;;;13.64;100.00;100605.06;2088203;28;20522;-63
2022/09/18 01:26:20;;;;;;;1.90;0.43;;;;;;;13.63;100.00;100614.66;2087607;28;20961;-63
2022/09/18 01:27:48;;;;;;;1.83;0.50;;;;;;;13.49;100.00;100584.53;2087775;28;20447;-63
2022/09/18 01:29:12;;;;;;;1.00;0.40;;;;;;;13.62;100.00;100624.25;2088273;28;20480;-63
2022/09/18 01:30:12;;;;;;;0.73;0.50;;;;;;;13.65;100.00;100628.88;2087796;28;20437;-63
2022/09/18 01:31:30;;;;;;;1.07;0.40;;;;;;;13.65;100.00;100642.81;2088597;28;20449;-63
2022/09/18 01:32:38;;;;;;;2.83;1.03;;;;;;;13.62;100.00;100638.91;2088082;28;20176;-63
2022/09/18 01:34:16;;;;;;;2.17;0.50;;;;;;;13.69;100.00;100637.88;2087987;28;20653;-62
2022/09/18 01:35:21;;;;;;;1.07;0.50;;;;;;;13.63;100.00;100645.28;2078757;28;20467;-63
2022/09/18 01:36:25;;;;;;;2.13;0.70;;;;;;;13.70;100.00;100647.78;2087159;28;20535;-63
2022/09/18 01:38:05;;;;;;;0.73;0.30;;;;;;;13.72;100.00;100651.69;2087110;28;20475;-63
2022/09/18 01:39:15;;;;;;;0.67;0.50;;;;;;;13.71;100.00;100649.34;2086848;28;20460;-63
2022/09/18 01:40:16;;;;;;;0.90;0.60;;;;;;;13.74;100.00;100652.00;2087290;28;20443;-63
2022/09/18 01:41:23;;;;;;;1.57;0.60;;;;;;;13.76;100.00;100655.13;2087765;28;20968;-63
2022/09/18 01:42:27;;;;;;;1.33;0.50;;;;;;;13.75;100.00;100666.72;2088228;28;20233;-63
2022/09/18 01:43:30;;;;;;;1.40;0.67;;;;;;;13.59;100.00;100639.84;2088055;28;20518;-63
2022/09/18 01:44:32;;;;;;;1.03;0.60;;;;;;;13.75;100.00;100663.94;2088371;28;20438;-62
2022/09/18 01:45:39;;;;;;;2.10;0.40;;;;;;;13.65;100.00;100665.88;2088010;28;20546;-62
2022/09/18 01:46:43;;;;;;;0.67;0.40;;;;;;;13.74;100.00;100662.38;2088314;28;21070;-62
2022/09/18 01:47:55;;;;;;;2.97;0.50;;;;;;;13.77;100.00;100661.47;2086952;28;20439;-63
2022/09/18 01:49:10;;;;;;;1.67;0.60;;;;;;;13.81;100.00;100659.31;2088066;28;20464;-63
2022/09/18 01:50:13;;;;;;;2.27;0.50;;;;;;;13.85;100.00;100659.97;2087413;28;21002;-63
2022/09/18 01:51:19;;;;;;;0.93;0.47;;;;;;;13.77;100.00;100656.69;2087692;28;20572;-63
2022/09/18 01:52:29;;;;;;;0.63;0.43;;;;;;;13.66;100.00;100636.00;2088089;28;20944;-63
2022/09/18 01:53:35;;;;;;;1.87;0.50;;;;;;;13.74;100.00;100648.44;2087786;28;20776;-63
2022/09/18 01:54:41;;;;;;;1.40;0.50;;;;;;;13.71;100.00;100654.91;2088542;28;20424;-63
2022/09/18 01:55:48;;;;;;;0.80;0.50;;;;;;;13.71;100.00;100644.56;2088201;28;20797;-63
2022/09/18 01:56:55;;;;;;;0.57;0.40;;;;;;;13.76;100.00;100655.13;2087761;28;20423;-63
2022/09/18 01:58:01;;;;;;;0.80;0.60;;;;;;;13.29;100.00;100567.34;2087354;28;20424;-63
2022/09/18 01:59:09;;;;;;;1.63;0.57;;;;;;;13.71;100.00;100649.34;2087098;28;20455;-63
2022/09/18 02:00:11;;;;;;;1.03;0.50;;;;;;;13.71;100.00;100654.91;2087605;28;20423;-63
2022/09/18 02:01:15;;;;;;;1.00;0.57;;;;;;;13.67;100.00;100648.69;2088585;28;20424;-63
2022/09/18 02:02:26;;;;;;;1.20;0.57;;;;;;;13.75;100.00;100663.94;2088606;28;20428;-63
2022/09/18 02:03:32;;;;;;;1.07;0.50;;;;;;;13.29;100.00;100589.63;2088260;28;20476;-63
2022/09/18 02:04:38;;;;;;;1.53;0.50;;;;;;;13.73;100.00;100666.41;2088423;28;20946;-63
2022/09/18 02:05:47;;;;;;;0.57;0.50;;;;;;;13.68;100.00;100662.16;2088114;28;20496;-63
2022/09/18 02:06:53;;;;;;;1.00;0.60;;;;;;;13.70;100.00;100662.50;2088195;28;20795;-63
2022/09/18 02:08:07;;;;;;;1.90;0.40;;;;;;;13.72;100.00;100682.31;2087973;28;20448;-63
2022/09/18 02:09:10;;;;;;;1.80;0.50;;;;;;;13.76;100.00;100673.84;2087712;28;20434;-63
2022/09/18 02:10:10;;;;;;;0.73;0.40;;;;;;;13.73;100.00;100677.53;2088151;28;20487;-63
2022/09/18 02:11:14;;;;;;;0.50;0.40;;;;;;;13.73;100.00;100678.31;2087185;28;20446;-62
2022/09/18 02:12:18;;;;;;;1.07;0.40;;;;;;;13.76;100.00;100674.63;2088325;28;20665;-63
2022/09/18 02:13:33;;;;;;;0.97;0.40;;;;;;;13.78;100.00;100674.94;2087558;28;20436;-63
2022/09/18 02:14:39;;;;;;;1.63;0.57;;;;;;;13.71;100.00;100652.13;2087559;28;20808;-63
2022/09/18 02:15:42;;;;;;;1.37;0.50;;;;;;;13.69;100.00;100657.38;2087800;28;20453;-63
2022/09/18 02:16:54;;;;;;;2.47;0.50;;;;;;;13.79;100.00;100676.47;2087757;28;20467;-63
2022/09/18 02:17:59;;;;;;;1.53;0.57;;;;;;;13.74;100.00;100654.03;2086841;28;20445;-63
2022/09/18 02:19:09;;;;;;;0.80;0.50;;;;;;;13.92;100.00;100677.22;2087333;28;20489;-63
2022/09/18 02:20:18;;;;;;;0.50;0.40;;;;;;;13.95;100.00;100681.88;2087738;28;20470;-63
2022/09/18 02:21:25;;;;;;;1.17;0.60;;;;;;;13.70;100.00;100642.22;2087782;28;20457;-63
2022/09/18 02:22:30;;;;;;;0.97;0.57;;;;;;;14.01;100.00;100677.28;2088112;28;20874;-63
2022/09/18 02:23:32;;;;;;;1.10;0.50;;;;;;;14.02;100.00;100684.41;2087742;28;20450;-63
2022/09/18 02:24:36;;;;;;;0.70;0.50;;;;;;;14.02;100.00;100689.19;2087816;28;20416;-63
2022/09/18 02:25:54;;;;;;;2.80;0.50;;;;;;;14.05;100.00;100693.88;2087164;28;20423;-63
2022/09/18 02:26:55;;;;;;;2.17;0.40;;;;;;;14.10;100.00;100693.28;2087906;28;20420;-63
2022/09/18 02:27:56;;;;;;;2.50;0.50;;;;;;;14.09;100.00;100697.31;2087444;28;20429;-63
2022/09/18 02:28:58;;;;;;;1.17;0.40;;;;;;;13.66;100.00;100633.22;2088000;28;20428;-63
2022/09/18 02:30:03;;;;;;;1.40;0.43;;;;;;;13.59;100.00;100617.56;2088481;28;20268;-63
2022/09/18 02:31:04;;;;;;;0.80;0.50;;;;;;;14.14;100.00;100716.22;2087576;28;20493;-63
2022/09/18 02:32:04;;;;;;;0.70;0.40;;;;;;;14.13;100.00;100706.28;2088231;28;20496;-63
2022/09/18 02:33:27;;;;;;;0.93;0.40;;;;;;;14.13;100.00;100714.66;2087780;28;20206;-63
2022/09/18 02:34:29;;;;;;;0.70;0.40;;;;;;;14.10;100.00;100707.97;2087405;28;20205;-63
2022/09/18 02:35:39;;;;;;;1.67;0.50;;;;;;;14.09;100.00;100719.59;2087780;28;20476;-63
2022/09/18 02:36:58;;;;;;;1.07;0.50;;;;;;;14.05;100.00;100716.94;2087988;28;20558;-63
2022/09/18 02:38:16;;;;;;;1.60;0.50;;;;;;;14.08;100.00;100727.16;2088082;28;20411;-63
2022/09/18 02:39:33;;;;;;;1.23;0.60;;;;;;;13.90;100.00;100707.53;2087641;28;20440;-63
2022/09/18 02:40:57;;;;;;;3.07;0.70;;;;;;;13.91;100.00;100716.66;2087640;28;20491;-63
2022/09/18 02:42:07;;;;;;;0.43;0.40;;;;;;;14.01;100.00;100733.00;2088146;28;20517;-63
2022/09/18 02:43:30;;;;;;;0.60;0.60;;;;;;;14.00;100.00;100725.88;2087851;28;21042;-63
2022/09/18 02:44:45;;;;;;;0.73;0.53;;;;;;;13.99;100.00;100723.53;2088045;28;20446;-63
2022/09/18 02:46:03;;;;;;;0.97;0.70;;;;;;;14.03;100.00;100722.19;2087500;28;20480;-63
2022/09/18 02:47:40;;;;;;;0.60;0.60;;;;;;;14.01;100.00;100726.66;2086646;28;20469;-63
2022/09/18 02:49:06;;;;;;;2.30;0.90;;;;;;;14.02;100.00;100714.25;2087555;28;20433;-63
2022/09/18 02:50:12;;;;;;;0.63;0.60;;;;;;;14.02;100.00;100720.63;2087662;28;20518;-63
2022/09/18 02:51:51;;;;;;;2.00;0.80;;;;;;;14.08;100.00;100720.84;2087475;28;20448;-63
2022/09/18 02:53:27;;;;;;;0.80;0.70;;;;;;;14.12;100.00;100724.25;2087885;28;21047;-63
2022/09/18 02:54:35;;;;;;;0.90;0.60;;;;;;;14.16;100.00;100725.69;2086229;28;20434;-63
2022/09/18 02:55:48;;;;;;;1.43;0.80;;;;;;;14.07;100.00;100708.09;2087689;28;20935;-63
2022/09/18 02:57:00;;;;;;;0.87;0.80;;;;;;;14.16;100.00;100725.69;2087413;28;20480;-63
2022/09/18 02:58:08;;;;;;;2.53;0.70;;;;;;;14.05;100.00;100697.44;2088149;28;20492;-63
2022/09/18 02:59:11;;;;;;;1.40;0.80;;;;;;;13.66;100.00;100624.88;2087925;28;20427;-63
2022/09/18 03:00:15;;;;;;;1.57;0.90;;;;;;;14.24;100.00;100715.84;2087045;28;20439;-62
2022/09/18 03:01:19;;;;;;;1.90;0.80;;;;;;;14.29;100.00;100718.06;2087644;28;20480;-63
2022/09/18 03:02:21;;;;;;;1.33;1.00;;;;;;;14.30;100.00;100716.06;2087603;28;20924;-63
2022/09/18 03:03:27;;;;;;;0.70;0.60;;;;;;;14.32;100.00;100728.31;2087509;28;21020;-63
2022/09/18 03:04:27;;;;;;;1.60;0.90;;;;;;;14.12;100.00;100696.38;2087581;28;20482;-63
2022/09/18 03:05:28;;;;;;;1.10;0.90;;;;;;;14.15;100.00;100703.84;2087576;28;20449;-63
2022/09/18 03:06:28;;;;;;;1.53;1.10;;;;;;;14.24;100.00;100698.38;2087687;28;20290;-63
2022/09/18 03:07:29;;;;;;;1.63;1.27;;;;;;;14.22;100.00;100700.81;2086716;28;20195;-63
2022/09/18 03:08:30;;;;;;;1.40;1.30;;;;;;;14.20;100.00;100714.44;2086970;28;20197;-63
2022/09/18 03:09:33;;;;;;;1.50;1.40;;;;;;;14.24;100.00;100721.41;2087747;28;20711;-63
2022/09/18 03:10:33;;;;;;;1.87;1.30;;;;;;;14.29;100.00;100720.06;2087534;28;20612;-63
2022/09/18 03:11:35;;;;;;;2.10;1.40;;;;;;;14.32;100.00;100721.94;2087343;28;20423;-63
2022/09/18 03:12:36;;;;;;;1.60;1.50;;;;;;;14.24;100.00;100707.50;2088422;28;20196;-63
2022/09/18 03:13:37;;;;;;;5.10;1.40;;;;;;;14.28;100.00;100712.91;2087726;28;20437;-63
2022/09/18 03:14:38;;;;;;;1.97;1.77;;;;;;;14.26;100.00;100720.97;2087635;28;20999;-63
2022/09/18 03:15:38;;;;;;;1.80;1.60;;;;;;;14.25;100.00;100711.81;2087807;28;20184;-63
2022/09/18 03:16:39;;;;;;;2.77;1.90;;;;;;;14.24;100.00;100710.28;2086658;28;20202;-63
2022/09/18 03:17:39;;;;;;;2.00;1.80;;;;;;;14.25;100.00;100719.44;2086727;28;20197;-63
2022/09/18 03:18:39;;;;;;;1.80;1.70;;;;;;;14.24;100.00;100715.09;2087510;28;20566;-63
2022/09/18 03:19:43;;;;;;;1.83;1.73;;;;;;;14.28;100.00;100716.50;2087237;28;20733;-63
2022/09/18 03:20:43;;;;;;;2.83;1.87;;;;;;;14.28;100.00;100722.06;2088085;28;20971;-63
2022/09/18 03:21:44;;;;;;;2.10;1.90;;;;;;;14.29;100.00;100731.22;2087172;28;20473;-63
2022/09/18 03:22:45;;;;;;;2.00;1.80;;;;;;;14.22;100.00;100734.25;2087937;28;20188;-63
2022/09/18 03:23:45;;;;;;;1.90;1.80;;;;;;;14.18;100.00;100728.78;2086801;28;20481;-63
2022/09/18 03:24:46;;;;;;;1.87;1.77;;;;;;;14.18;100.00;100730.78;2087567;28;20275;-63
2022/09/18 03:25:49;;;;;;;2.27;2.07;;;;;;;14.11;100.00;100725.47;2087511;28;20198;-63
2022/09/18 03:26:51;;;;;;;2.13;1.93;;;;;;;14.08;100.00;100732.75;2087622;28;20681;-63
2022/09/18 03:27:55;;;;;;;5.53;1.93;;;;;;;14.12;100.00;100727.03;2087390;28;20415;-63
2022/09/18 03:28:55;;;;;;;2.27;2.07;;;;;;;14.09;100.00;100733.53;2086933;28;20855;-63
2022/09/18 03:29:56;;;;;;;2.20;2.00;;;;;;;14.05;100.00;100732.88;2087784;28;20441;-63
2022/09/18 03:30:56;;;;;;;2.83;1.97;;;;;;;13.46;100.00;100646.66;2086565;28;20221;-62
2022/09/18 03:31:57;;;;;;;3.77;2.07;;;;;;;13.94;100.00;100727.66;2086648;28;20192;-62
2022/09/18 03:33:16;;;;;;;2.90;2.10;;;;;;;13.89;100.00;100731.03;2087382;28;20202;-63
2022/09/18 03:34:17;;;;;;;2.30;2.10;;;;;;;13.84;100.00;100733.63;2087653;28;20672;-63
2022/09/18 03:35:18;;;;;;;2.30;2.10;;;;;;;13.81;100.00;100737.31;2087649;28;21124;-63
2022/09/18 03:36:18;;;;;;;2.03;1.93;;;;;;;13.79;100.00;100734.22;2087238;28;20226;-63
2022/09/18 03:37:19;;;;;;;2.23;2.03;;;;;;;13.75;100.00;100745.50;2086397;28;20435;-63
2022/09/18 03:38:20;;;;;;;2.30;2.10;;;;;;;13.53;100.00;100736.28;2087532;28;20234;-63
2022/09/18 03:39:20;;;;;;;3.60;2.20;;;;;;;13.74;100.00;100743.91;2086498;28;20182;-63
2022/09/18 03:40:21;;;;;;;3.80;2.37;;;;;;;13.80;100.00;100747.69;2087412;28;20420;-63
2022/09/18 03:41:22;;;;;;;2.30;2.10;;;;;;;13.74;100.00;100751.50;2087206;28;20178;-63
2022/09/18 03:42:23;;;;;;;2.50;2.30;;;;;;;13.68;100.00;100748.50;2087496;28;20248;-63
2022/09/18 03:43:23;;;;;;;3.33;2.20;;;;;;;13.67;100.00;100751.72;2087307;28;20533;-63
2022/09/18 03:44:24;;;;;;;2.63;2.20;;;;;;;13.65;100.00;100751.41;2087300;28;20663;-63
2022/09/18 03:45:25;;;;;;;2.20;2.00;;;;;;;13.09;100.00;100673.38;2087399;28;20629;-63
2022/09/18 03:46:25;;;;;;;2.40;2.20;;;;;;;13.53;100.00;100743.88;2087321;28;20192;-62
2022/09/18 03:47:26;;;;;;;3.30;2.43;;;;;;;13.58;100.00;100748.88;2086880;28;20192;-63
2022/09/18 03:48:26;;;;;;;2.50;2.30;;;;;;;13.43;100.00;100731.84;2087455;28;20224;-63
2022/09/18 03:49:27;;;;;;;2.60;2.33;;;;;;;13.48;100.00;100750.78;2087835;28;20678;-63
2022/09/18 03:50:28;;;;;;;2.63;2.20;;;;;;;13.46;100.00;100764.38;2087525;28;20687;-63
2022/09/18 03:51:28;;;;;;;2.47;2.27;;;;;;;13.46;100.00;100755.22;2087272;28;20194;-63
2022/09/18 03:52:29;;;;;;;2.60;2.40;;;;;;;13.46;100.00;100756.03;2086879;28;20521;-63
2022/09/18 03:53:29;;;;;;;2.80;2.50;;;;;;;13.36;100.00;100743.25;2087057;28;20599;-63
2022/09/18 03:54:30;;;;;;;2.53;2.00;;;;;;;13.34;100.00;100754.06;2087724;28;20198;-63
2022/09/18 03:55:31;;;;;;;2.70;2.47;;;;;;;13.37;100.00;100761.50;2087507;28;20219;-63
2022/09/18 03:56:31;;;;;;;4.00;2.30;;;;;;;13.46;100.00;100763.59;2087434;28;20181;-63
2022/09/18 03:57:32;;;;;;;2.83;2.63;;;;;;;13.45;100.00;100756.47;2087344;28;20255;-63
2022/09/18 03:58:32;;;;;;;4.27;2.40;;;;;;;13.45;100.00;100765.59;2087225;28;20194;-63
2022/09/18 03:59:33;;;;;;;2.57;2.37;;;;;;;13.44;100.00;100766.84;2086831;28;20569;-63
2022/09/18 04:00:33;;;;;;;3.73;2.77;;;;;;;12.92;100.00;100691.38;2087353;28;20192;-63
2022/09/18 04:01:34;;;;;;;2.80;2.60;;;;;;;13.39;100.00;100775.75;2087133;28;20201;-63
2022/09/18 04:02:34;;;;;;;3.83;2.67;;;;;;;13.39;100.00;100772.19;2087380;28;20197;-63
2022/09/18 04:03:35;;;;;;;3.30;2.97;;;;;;;13.39;100.00;100781.31;2087233;28;20661;-63
2022/09/18 04:04:36;;;;;;;3.00;2.80;;;;;;;13.21;100.00;100758.84;2087252;28;20181;-63
2022/09/18 04:05:36;;;;;;;3.67;2.80;;;;;;;13.32;100.00;100775.97;2087951;28;20185;-63
2022/09/18 04:06:37;;;;;;;4.00;2.80;;;;;;;13.35;100.00;100777.88;2087272;28;20444;-63
2022/09/18 04:07:37;;;;;;;5.00;2.90;;;;;;;13.37;100.00;100780.22;2085944;28;20262;-63
2022/09/18 04:08:38;;;;;;;4.70;2.67;;;;;;;13.38;100.00;100790.13;2087808;28;20291;-63
2022/09/18 04:09:38;;;;;;;3.60;3.10;;;;;;;13.21;100.00;100769.97;2086995;28;20190;-63
2022/09/18 04:10:39;;;;;;;3.03;2.70;;;;;;;13.36;100.00;100787.78;2087298;28;20286;-63
2022/09/18 04:11:39;;;;;;;3.10;2.77;;;;;;;13.35;100.00;100791.00;2087052;28;20196;-63
2022/09/18 04:12:43;;;;;;;3.00;2.80;;;;;;;13.21;100.00;100781.09;2087394;28;20581;-63
2022/09/18 04:13:43;;;;;;;2.70;2.50;;;;;;;13.31;100.00;100796.69;2086890;28;20180;-62
2022/09/18 04:14:44;;;;;;;2.90;2.70;;;;;;;13.30;100.00;100799.91;2086958;28;20570;-63
2022/09/18 04:15:48;;;;;;;3.33;2.70;;;;;;;12.96;100.00;100749.75;2086711;28;20199;-63
2022/09/18 04:16:49;;;;;;;3.20;2.67;;;;;;;13.31;100.00;100802.25;2086638;28;20193;-63
2022/09/18 04:17:49;;;;;;;2.80;2.40;;;;;;;13.32;100.00;100805.81;2086727;28;20450;-63
2022/09/18 04:18:49;;;;;;;2.53;2.33;;;;;;;13.31;100.00;100818.94;2087073;28;20322;-63
2022/09/18 04:19:50;;;;;;;2.70;2.10;;;;;;;13.28;100.00;100810.72;2086410;28;20646;-62
2022/09/18 04:20:50;;;;;;;3.90;2.50;;;;;;;13.28;100.00;100811.47;2086956;28;20270;-62
2022/09/18 04:21:51;;;;;;;2.37;2.17;;;;;;;13.37;100.00;100819.94;2087153;28;20199;-62
2022/09/18 04:22:51;;;;;;;2.30;2.10;;;;;;;13.42;100.00;100813.06;2088035;28;20199;-63
2022/09/18 04:23:52;;;;;;;3.10;2.10;;;;;;;13.31;100.00;100818.16;2087285;28;20226;-63
2022/09/18 04:24:52;;;;;;;3.50;2.27;;;;;;;13.29;100.00;100818.63;2086221;28;20202;-63
2022/09/18 04:25:53;;;;;;;3.20;2.30;;;;;;;13.29;100.00;100817.84;2087486;28;20209;-62
2022/09/18 04:26:53;;;;;;;2.20;1.90;;;;;;;13.16;100.00;100820.63;2087035;28;20194;-62
2022/09/18 04:27:54;;;;;;;4.43;1.97;;;;;;;13.25;100.00;100822.72;2086474;28;20191;-63
2022/09/18 04:28:54;;;;;;;2.17;2.00;;;;;;;13.22;100.00;100804.91;2086781;28;20266;-63
2022/09/18 04:29:55;;;;;;;4.47;2.30;;;;;;;13.33;100.00;100826.88;2087232;28;20198;-63
2022/09/18 04:30:55;;;;;;;2.30;2.10;;;;;;;13.36;100.00;100829.53;2087447;28;20649;-63
2022/09/18 04:31:56;;;;;;;2.40;2.20;;;;;;;13.28;100.00;100827.41;2088258;28;20277;-63
2022/09/18 04:32:56;;;;;;;2.33;1.90;;;;;;;13.35;100.00;100827.19;2087261;28;20207;-63
2022/09/18 04:33:57;;;;;;;2.17;1.90;;;;;;;13.32;100.00;100828.84;2087490;28;20197;-62
2022/09/18 04:34:57;;;;;;;2.23;2.03;;;;;;;13.25;100.00;100833.84;2087602;28;20275;-62
2022/09/18 04:35:58;;;;;;;3.17;2.20;;;;;;;13.29;100.00;100843.69;2087562;28;20200;-62
2022/09/18 04:36:58;;;;;;;3.93;2.30;;;;;;;13.35;100.00;100841.09;2084600;28;20567;-62
2022/09/18 04:37:59;;;;;;;2.73;2.10;;;;;;;13.41;100.00;100850.44;2086594;28;20187;-62
2022/09/18 04:38:59;;;;;;;2.37;2.10;;;;;;;13.49;100.00;100849.00;2085185;28;20696;-63
2022/09/18 04:40:00;;;;;;;2.73;1.90;;;;;;;13.52;100.00;100843.31;2087785;28;20714;-63
2022/09/18 04:41:00;;;;;;;2.83;2.30;;;;;;;13.46;100.00;100847.09;2087584;28;20207;-63
2022/09/18 04:42:01;;;;;;;2.47;2.27;;;;;;;13.47;100.00;100855.00;2089475;28;20195;-63
2022/09/18 04:43:01;;;;;;;3.10;2.10;;;;;;;13.47;100.00;100855.00;2087773;28;20325;-63
2022/09/18 04:44:02;;;;;;;2.67;2.40;;;;;;;13.18;100.00;100804.28;2087641;28;20219;-63
2022/09/18 04:45:03;;;;;;;3.10;2.30;;;;;;;13.12;100.00;100775.44;2087757;28;21033;-62
2022/09/18 04:46:04;;;;;;;2.10;1.90;;;;;;;13.72;100.00;100856.97;2089331;28;20184;-63
2022/09/18 04:47:05;;;;;;;2.50;2.30;;;;;;;13.73;100.00;100859.34;2088071;28;20908;-63
2022/09/18 04:48:05;;;;;;;2.30;2.10;;;;;;;13.51;100.00;100824.28;2089782;28;20221;-63
2022/09/18 04:49:06;;;;;;;3.13;2.20;;;;;;;13.84;100.00;100862.53;2088790;28;20188;-63
2022/09/18 04:50:07;;;;;;;2.23;2.03;;;;;;;13.87;100.00;100866.44;2088506;28;20246;-63
2022/09/18 04:51:08;;;;;;;2.17;1.93;;;;;;;13.90;100.00;100869.13;2087679;28;20603;-63
2022/09/18 04:52:08;;;;;;;3.80;2.20;;;;;;;13.93;100.00;100862.63;2088662;28;20478;-63
2022/09/18 04:53:09;;;;;;;2.10;2.00;;;;;;;13.97;100.00;100862.50;2088718;28;20240;-63
2022/09/18 04:54:11;;;;;;;2.17;1.90;;;;;;;13.98;100.00;100867.66;2089200;28;20484;-63
2022/09/18 04:55:11;;;;;;;3.90;2.10;;;;;;;14.10;100.00;100866.81;2088084;28;20206;-62
2022/09/18 04:56:12;;;;;;;2.30;1.93;;;;;;;14.11;100.00;100864.81;2089398;28;21011;-62
2022/09/18 04:57:12;;;;;;;2.53;2.00;;;;;;;14.12;100.00;100872.75;2087743;28;20192;-62
2022/09/18 04:58:15;;;;;;;2.57;2.10;;;;;;;14.19;100.00;100866.16;2088210;28;20196;-62
2022/09/18 04:59:15;;;;;;;2.63;2.20;;;;;;;14.28;100.00;100869.81;2088615;28;20196;-62